< < Back
Terminal Aerodrome Forecast


Current Version              Previous Versions:   1  2  3  4  5  6  7  8  9  

Terminal Aerodrome Forecast

448
FTUS42 KFFC 011720
TAFPDK
TAF
KPDK 011720Z 0118/0218 28007KT P6SM FEW045
     FM020000 28002KT P6SM FEW250
     FM021400 28004KT P6SM FEW040=



Latest METAR

413
SAUS70 KWBC 020900 RRR
MTRPDK
METAR KPDK 020853Z 03003KT 10SM CLR 23/17 A3001 RMK AO2 SLP141 T02280167
55004


USA.gov is the U.S. government's official web portal to all federal, state and local government web resources and services.